Time;durP1;ratioP1;P1;durP2;ratioP2;P2;SDS_P1;SDS_P2;PMS_P1;PMS_P2;Temp;Humidity;BMP_temperature;BMP_pressure;BME280_temperature;BME280_humidity;BME280_pressure;Samples;Min_cycle;Max_cycle;Signal;HPM_P1;HPM_P2
2024/03/03 00:01:25;;;;;;;50.45;24.48;;;6.80;99.90;;;;;;5112359;27;20094;-67
2024/03/03 00:03:51;;;;;;;46.33;24.75;;;6.80;99.90;;;;;;5112480;28;20168;-67
2024/03/03 00:06:16;;;;;;;55.92;26.27;;;6.80;99.90;;;;;;5112222;28;20028;-67
2024/03/03 00:08:42;;;;;;;48.75;25.35;;;6.80;99.90;;;;;;5112544;28;20513;-67
2024/03/03 00:11:07;;;;;;;46.65;25.27;;;6.80;99.90;;;;;;5111966;28;20460;-67
2024/03/03 00:13:33;;;;;;;49.35;25.95;;;6.80;99.90;;;;;;5112174;28;20080;-67
2024/03/03 00:15:59;;;;;;;43.63;25.85;;;6.80;99.90;;;;;;5111612;28;20387;-67
2024/03/03 00:18:24;;;;;;;45.67;26.23;;;6.70;99.90;;;;;;5112106;28;20068;-67
2024/03/03 00:20:50;;;;;;;57.78;28.67;;;6.70;99.90;;;;;;5112354;28;20050;-65
2024/03/03 00:23:15;;;;;;;47.80;27.23;;;6.70;99.90;;;;;;5110614;28;20027;-66
2024/03/03 00:25:41;;;;;;;56.38;29.08;;;6.70;99.90;;;;;;5111950;28;20035;-67
2024/03/03 00:28:06;;;;;;;57.22;29.02;;;6.70;99.90;;;;;;5111746;28;20496;-66
2024/03/03 00:30:32;;;;;;;48.55;26.10;;;6.60;99.90;;;;;;5111637;27;20019;-66
2024/03/03 00:32:57;;;;;;;53.88;29.95;;;6.60;99.90;;;;;;5111945;28;20032;-66
2024/03/03 00:35:23;;;;;;;55.08;28.42;;;6.60;99.90;;;;;;5111193;28;20069;-66
2024/03/03 00:37:48;;;;;;;52.38;26.85;;;6.60;99.90;;;;;;5110713;28;20349;-66
2024/03/03 00:40:14;;;;;;;55.40;29.17;;;6.50;99.90;;;;;;5111676;28;20023;-67
2024/03/03 00:42:40;;;;;;;57.85;27.83;;;6.50;99.90;;;;;;5111600;28;20028;-67
2024/03/03 00:45:06;;;;;;;50.50;26.70;;;6.50;99.90;;;;;;5111355;28;20038;-67
2024/03/03 00:47:31;;;;;;;49.28;27.58;;;6.50;99.90;;;;;;5109618;28;20515;-67
2024/03/03 00:49:57;;;;;;;51.55;27.95;;;6.40;99.90;;;;;;5111577;28;20051;-67
2024/03/03 00:52:22;;;;;;;55.60;28.27;;;6.40;99.90;;;;;;5111705;28;20034;-67
2024/03/03 00:54:48;;;;;;;56.17;28.58;;;6.40;99.90;;;;;;5111248;28;20034;-67
2024/03/03 00:57:13;;;;;;;49.92;27.70;;;6.30;99.90;;;;;;5109598;28;20030;-67
2024/03/03 00:59:40;;;;;;;51.40;28.42;;;6.30;99.90;;;;;;5111247;28;20035;-67
2024/03/03 01:02:05;;;;;;;54.53;27.00;;;6.30;99.90;;;;;;5111210;28;20046;-67
2024/03/03 01:04:31;;;;;;;51.92;27.92;;;6.30;99.90;;;;;;5109865;28;20032;-67
2024/03/03 01:06:56;;;;;;;54.63;29.08;;;6.30;99.90;;;;;;5110850;28;20038;-67
2024/03/03 01:09:22;;;;;;;50.65;27.58;;;6.30;99.90;;;;;;5111096;28;20038;-66
2024/03/03 01:11:51;;;;;;;52.05;27.67;;;6.20;99.90;;;;;;5111566;28;20489;-66
2024/03/03 01:14:17;;;;;;;54.78;29.60;;;6.20;99.90;;;;;;5110879;28;20020;-66
2024/03/03 01:16:42;;;;;;;59.60;29.95;;;6.20;99.90;;;;;;5109673;28;20032;-67
2024/03/03 01:19:08;;;;;;;51.42;28.42;;;6.20;99.90;;;;;;5109754;28;20020;-68
2024/03/03 01:21:33;;;;;;;52.50;27.08;;;6.10;99.90;;;;;;5111095;28;20065;-68
2024/03/03 01:23:59;;;;;;;49.83;27.65;;;6.10;99.90;;;;;;5109587;28;20085;-68
2024/03/03 01:26:24;;;;;;;60.97;28.42;;;6.20;99.90;;;;;;5110529;28;20058;-68
2024/03/03 01:28:51;;;;;;;50.97;27.10;;;6.20;99.90;;;;;;5110793;28;20028;-68
2024/03/03 01:31:16;;;;;;;52.40;26.83;;;6.10;99.90;;;;;;5110642;28;20024;-68
2024/03/03 01:33:42;;;;;;;48.33;26.98;;;6.10;99.90;;;;;;5110911;28;20048;-68
2024/03/03 01:36:07;;;;;;;59.78;28.08;;;6.10;99.90;;;;;;5110251;28;20025;-67
2024/03/03 01:38:33;;;;;;;52.05;26.02;;;6.10;99.90;;;;;;5110608;28;20072;-68
2024/03/03 01:40:58;;;;;;;56.05;28.00;;;6.00;99.90;;;;;;5110578;28;20387;-68
2024/03/03 01:43:24;;;;;;;44.15;24.30;;;6.00;99.90;;;;;;5110245;28;20035;-68
2024/03/03 01:45:49;;;;;;;52.85;27.33;;;6.00;99.90;;;;;;5110358;28;20510;-69
2024/03/03 01:48:15;;;;;;;52.10;28.05;;;6.00;99.90;;;;;;5109699;28;20628;-68
2024/03/03 01:50:42;;;;;;;49.53;26.05;;;5.90;99.90;;;;;;5109123;28;20024;-67
2024/03/03 01:53:09;;;;;;;54.10;26.98;;;6.00;99.90;;;;;;5110243;28;20024;-68
2024/03/03 01:55:34;;;;;;;50.17;27.20;;;5.90;99.90;;;;;;5110132;28;20039;-67
2024/03/03 01:58:02;;;;;;;54.28;28.23;;;6.00;99.90;;;;;;5108305;28;20025;-68
2024/03/03 02:00:34;;;;;;;63.10;29.00;;;6.00;99.90;;;;;;5108626;28;20051;-67
2024/03/03 02:03:04;;;;;;;64.13;32.30;;;6.00;99.90;;;;;;5110200;28;20024;-69
2024/03/03 02:05:30;;;;;;;;;;;6.00;99.90;;;;;;5108993;28;20039;-67
2024/03/03 02:07:56;;;;;;;53.33;27.92;;;6.00;99.90;;;;;;5109667;28;19991;-68
2024/03/03 02:10:22;;;;;;;53.60;29.27;;;6.00;99.90;;;;;;5108516;28;20057;-68
2024/03/03 02:12:48;;;;;;;54.38;27.05;;;6.00;99.90;;;;;;5110237;28;20027;-68
2024/03/03 02:15:14;;;;;;;66.40;31.23;;;6.00;99.90;;;;;;5108615;28;20023;-67
2024/03/03 02:17:39;;;;;;;70.03;32.97;;;6.00;99.90;;;;;;5109703;28;20037;-67
2024/03/03 02:20:08;;;;;;;62.78;32.60;;;6.00;99.90;;;;;;5108509;28;20023;-67
2024/03/03 02:22:35;;;;;;;60.97;31.00;;;6.00;99.90;;;;;;5109988;28;20486;-67
2024/03/03 02:25:01;;;;;;;55.88;28.75;;;6.00;99.90;;;;;;5108280;28;20227;-67
2024/03/03 02:27:26;;;;;;;56.22;29.67;;;6.00;99.90;;;;;;5109449;28;20407;-67
2024/03/03 02:29:53;;;;;;;55.85;28.20;;;6.00;99.90;;;;;;5110028;28;20024;-67
2024/03/03 02:32:18;;;;;;;57.72;28.85;;;6.00;99.90;;;;;;5108274;28;20020;-67
2024/03/03 02:34:44;;;;;;;64.05;30.73;;;6.00;99.90;;;;;;5109673;28;20024;-67
2024/03/03 02:37:09;;;;;;;57.13;29.83;;;6.00;99.90;;;;;;5109482;28;20019;-67
2024/03/03 02:39:35;;;;;;;51.47;26.90;;;5.90;99.90;;;;;;5109506;28;20069;-67
2024/03/03 02:42:00;;;;;;;59.92;31.10;;;5.90;99.90;;;;;;5109539;28;20024;-67
2024/03/03 02:44:26;;;;;;;56.95;29.27;;;5.90;99.90;;;;;;5109646;28;20112;-66
2024/03/03 02:46:51;;;;;;;53.67;28.27;;;5.80;99.90;;;;;;5109205;28;20016;-66
2024/03/03 02:49:17;;;;;;;61.47;30.42;;;5.90;99.90;;;;;;5109519;28;20030;-66
2024/03/03 02:51:43;;;;;;;61.92;32.67;;;5.80;99.90;;;;;;5109728;28;20155;-67
2024/03/03 02:54:08;;;;;;;66.35;32.20;;;5.80;99.90;;;;;;5109202;28;20099;-67
2024/03/03 02:56:34;;;;;;;61.55;30.95;;;5.80;99.90;;;;;;5108746;28;20476;-66
2024/03/03 02:58:59;;;;;;;70.45;33.92;;;5.70;99.90;;;;;;5108771;28;20449;-66
2024/03/03 03:01:25;;;;;;;63.05;29.95;;;5.70;99.90;;;;;;5107716;28;20023;-66
2024/03/03 03:03:50;;;;;;;55.28;29.35;;;5.70;99.90;;;;;;5109486;28;20046;-66
2024/03/03 03:06:16;;;;;;;56.92;28.65;;;5.70;99.90;;;;;;5107307;28;20046;-66
2024/03/03 03:08:41;;;;;;;51.92;27.90;;;5.60;99.90;;;;;;5109340;28;20027;-67
2024/03/03 03:11:07;;;;;;;48.70;25.92;;;5.60;99.90;;;;;;5107580;28;20051;-67
2024/03/03 03:13:32;;;;;;;52.53;26.92;;;5.50;99.90;;;;;;5109184;28;20476;-67
2024/03/03 03:15:58;;;;;;;51.28;26.70;;;5.50;99.90;;;;;;5107652;28;20477;-67
2024/03/03 03:18:23;;;;;;;54.95;28.23;;;5.40;99.90;;;;;;5109098;28;20024;-66
2024/03/03 03:20:50;;;;;;;50.97;25.92;;;5.40;99.90;;;;;;5109100;28;20027;-67
2024/03/03 03:23:15;;;;;;;60.78;27.83;;;5.30;99.90;;;;;;5108925;28;20022;-66
2024/03/03 03:25:41;;;;;;;59.28;27.58;;;5.30;99.90;;;;;;5107725;28;20023;-67
2024/03/03 03:28:07;;;;;;;51.08;26.02;;;5.30;99.90;;;;;;5108676;28;20023;-67
2024/03/03 03:30:32;;;;;;;53.00;25.98;;;5.30;99.90;;;;;;5109000;28;20070;-67
2024/03/03 03:32:58;;;;;;;46.33;25.92;;;5.30;99.90;;;;;;5109176;28;20494;-67
2024/03/03 03:35:24;;;;;;;42.72;21.92;;;5.20;99.90;;;;;;5109095;28;20035;-67
2024/03/03 03:37:50;;;;;;;44.83;22.48;;;5.10;99.90;;;;;;5108462;28;20020;-67
2024/03/03 03:40:16;;;;;;;41.17;22.40;;;5.00;99.90;;;;;;5107874;28;20500;-67
2024/03/03 03:42:41;;;;;;;44.47;22.15;;;5.00;99.90;;;;;;5108783;28;20090;-67
2024/03/03 03:45:07;;;;;;;40.85;22.08;;;5.00;99.90;;;;;;5107178;28;20019;-67
2024/03/03 03:47:33;;;;;;;47.08;23.08;;;5.00;99.90;;;;;;5106843;28;20028;-67
2024/03/03 03:49:58;;;;;;;43.05;22.17;;;4.90;99.90;;;;;;5108766;28;20026;-67
2024/03/03 03:52:24;;;;;;;54.20;26.98;;;4.90;99.90;;;;;;5108538;28;20384;-68
2024/03/03 03:54:49;;;;;;;47.28;24.15;;;4.90;99.90;;;;;;5108547;28;20427;-67
2024/03/03 03:57:15;;;;;;;44.13;24.10;;;4.80;99.90;;;;;;5106840;28;20388;-67
2024/03/03 03:59:41;;;;;;;43.65;24.33;;;4.80;99.90;;;;;;5108600;28;20077;-67
2024/03/03 04:02:07;;;;;;;48.22;26.02;;;4.80;99.90;;;;;;5108432;28;20103;-67
2024/03/03 04:04:34;;;;;;;51.85;27.38;;;4.80;99.90;;;;;;5108575;28;20026;-67
2024/03/03 04:07:01;;;;;;;50.25;26.52;;;4.80;99.90;;;;;;5108501;28;20015;-67
2024/03/03 04:09:27;;;;;;;47.15;24.90;;;4.70;99.90;;;;;;5108827;28;20026;-67
2024/03/03 04:11:53;;;;;;;55.13;28.13;;;4.70;99.90;;;;;;5111832;28;20020;-67
2024/03/03 04:14:18;;;;;;;59.35;27.20;;;4.70;99.90;;;;;;5111430;28;20476;-67
2024/03/03 04:16:44;;;;;;;53.10;26.95;;;4.70;99.90;;;;;;5112463;28;20059;-67
2024/03/03 04:19:10;;;;;;;56.08;27.08;;;4.80;99.90;;;;;;5112675;28;20500;-67
2024/03/03 04:21:42;;;;;;;61.60;31.10;;;4.80;99.90;;;;;;5112461;28;20043;-67
2024/03/03 04:24:08;;;;;;;66.43;29.25;;;4.80;99.90;;;;;;5112220;28;20419;-68
2024/03/03 04:26:33;;;;;;;58.05;28.90;;;4.80;99.90;;;;;;5111825;28;20012;-67
2024/03/03 04:28:59;;;;;;;57.30;28.92;;;4.80;99.90;;;;;;5110636;28;20031;-67
2024/03/03 04:31:25;;;;;;;62.95;30.50;;;4.80;99.90;;;;;;5110412;28;20059;-68
2024/03/03 04:33:51;;;;;;;58.55;29.77;;;4.80;99.90;;;;;;5112330;28;20656;-67
2024/03/03 04:36:16;;;;;;;60.67;30.27;;;4.80;99.90;;;;;;5111331;27;20373;-67
2024/03/03 04:38:42;;;;;;;61.35;30.80;;;4.90;99.90;;;;;;5112007;28;20396;-68
2024/03/03 04:41:14;;;;;;;58.25;30.55;;;4.80;99.90;;;;;;5111807;28;20023;-68
2024/03/03 04:43:40;;;;;;;65.85;30.35;;;4.80;99.90;;;;;;5111784;28;20091;-68
2024/03/03 04:46:06;;;;;;;54.78;28.63;;;4.80;99.90;;;;;;5111229;28;20095;-68
2024/03/03 04:48:32;;;;;;;57.10;28.17;;;4.80;99.90;;;;;;5111221;28;20667;-67
2024/03/03 04:50:57;;;;;;;62.13;32.80;;;4.80;99.90;;;;;;5111925;28;20024;-67
2024/03/03 04:53:23;;;;;;;52.30;28.13;;;4.80;99.90;;;;;;5109968;28;20354;-68
2024/03/03 04:55:48;;;;;;;58.60;30.42;;;4.80;99.90;;;;;;5111062;28;20072;-67
2024/03/03 04:58:14;;;;;;;64.03;33.22;;;4.80;99.90;;;;;;5109605;28;20038;-67
2024/03/03 05:00:39;;;;;;;58.28;31.08;;;4.80;99.90;;;;;;5110193;28;20023;-67
2024/03/03 05:03:05;;;;;;;63.72;33.05;;;4.80;99.90;;;;;;5111479;28;20026;-67
2024/03/03 05:05:31;;;;;;;67.85;32.25;;;4.80;99.90;;;;;;5109741;28;20580;-67
2024/03/03 05:07:56;;;;;;;65.07;30.67;;;4.80;99.90;;;;;;5111213;28;20024;-67
2024/03/03 05:10:22;;;;;;;65.28;32.00;;;4.70;99.90;;;;;;5109875;28;20016;-67
2024/03/03 05:12:49;;;;;;;61.92;30.05;;;4.70;99.90;;;;;;5111174;28;20043;-67
2024/03/03 05:15:15;;;;;;;62.05;31.50;;;4.70;99.90;;;;;;5111003;28;20020;-67
2024/03/03 05:17:40;;;;;;;61.53;31.90;;;4.70;99.90;;;;;;5110772;28;20030;-67
2024/03/03 05:20:07;;;;;;;64.15;32.53;;;4.70;99.90;;;;;;5111066;28;20376;-67
2024/03/03 05:22:33;;;;;;;55.70;29.83;;;4.70;99.90;;;;;;5108850;28;20023;-67
2024/03/03 05:24:59;;;;;;;56.25;29.63;;;4.70;99.90;;;;;;5111314;28;20031;-67
2024/03/03 05:27:24;;;;;;;58.95;29.40;;;4.70;99.90;;;;;;5110935;28;20028;-67
2024/03/03 05:29:51;;;;;;;67.47;33.42;;;4.60;99.90;;;;;;5110520;28;20065;-67
2024/03/03 05:32:16;;;;;;;62.65;32.67;;;4.60;99.90;;;;;;5105794;28;20019;-67
2024/03/03 05:34:42;;;;;;;57.47;30.63;;;4.70;99.90;;;;;;5110089;28;20026;-67
2024/03/03 05:37:08;;;;;;;57.30;29.40;;;4.60;99.90;;;;;;5109943;28;20085;-67
2024/03/03 05:39:34;;;;;;;59.28;30.98;;;4.60;99.90;;;;;;5108697;28;20016;-67
2024/03/03 05:42:00;;;;;;;58.65;30.02;;;4.60;99.90;;;;;;5110134;28;20114;-67
2024/03/03 05:44:25;;;;;;;73.75;34.53;;;4.60;99.90;;;;;;5110057;28;20077;-67
2024/03/03 05:46:50;;;;;;;71.32;33.67;;;4.60;99.90;;;;;;5109478;28;20518;-67
2024/03/03 05:49:16;;;;;;;63.92;31.55;;;4.70;99.90;;;;;;5109970;28;20018;-67
2024/03/03 05:51:41;;;;;;;73.30;34.33;;;4.70;99.90;;;;;;5110042;28;20019;-67
2024/03/03 05:54:07;;;;;;;82.97;36.58;;;4.70;99.90;;;;;;5110516;28;20027;-66
2024/03/03 05:56:32;;;;;;;63.50;31.65;;;4.60;99.90;;;;;;5108270;28;20019;-67
2024/03/03 05:58:58;;;;;;;63.55;34.58;;;4.70;99.90;;;;;;5108437;28;20035;-68
2024/03/03 06:01:23;;;;;;;61.80;32.47;;;4.70;99.90;;;;;;5109683;28;20020;-68
2024/03/03 06:03:49;;;;;;;65.95;30.42;;;4.70;99.90;;;;;;5109706;28;20139;-65
2024/03/03 06:06:14;;;;;;;62.00;32.28;;;4.70;99.90;;;;;;5107932;28;20034;-66
2024/03/03 06:08:45;;;;;;;62.47;32.83;;;4.70;99.90;;;;;;5109565;28;20058;-65
2024/03/03 06:11:10;;;;;;;59.33;31.33;;;4.60;99.90;;;;;;5108879;28;20020;-66
2024/03/03 06:13:36;;;;;;;61.40;31.27;;;4.60;99.90;;;;;;5109622;28;20054;-65
2024/03/03 06:16:02;;;;;;;68.30;33.28;;;4.60;99.90;;;;;;5109356;28;20484;-65
2024/03/03 06:18:28;;;;;;;65.93;32.38;;;4.70;99.90;;;;;;5109736;28;20011;-65
2024/03/03 06:20:54;;;;;;;60.92;32.45;;;4.70;99.90;;;;;;5109817;28;20008;-66
2024/03/03 06:23:20;;;;;;;64.00;32.75;;;4.70;99.90;;;;;;5109434;28;20042;-66
2024/03/03 06:25:46;;;;;;;70.03;34.08;;;4.70;99.90;;;;;;5109952;28;20372;-66
2024/03/03 06:28:12;;;;;;;64.15;32.97;;;4.70;99.90;;;;;;5109474;28;20019;-66
2024/03/03 06:30:37;;;;;;;62.08;32.88;;;4.70;99.90;;;;;;5108296;28;20053;-66
2024/03/03 06:33:03;;;;;;;70.45;34.60;;;4.80;99.90;;;;;;5109401;28;20027;-66
2024/03/03 06:35:28;;;;;;;67.05;31.17;;;4.70;99.90;;;;;;5109396;28;20035;-66
2024/03/03 06:37:54;;;;;;;58.28;30.50;;;4.80;99.90;;;;;;5109184;28;20054;-66
2024/03/03 06:40:20;;;;;;;52.50;28.83;;;4.80;99.90;;;;;;5108364;28;20043;-66
2024/03/03 06:42:45;;;;;;;55.45;30.27;;;4.90;99.90;;;;;;5109795;28;20051;-66
2024/03/03 06:45:11;;;;;;;60.15;30.80;;;4.90;99.90;;;;;;5109331;28;20099;-66
2024/03/03 06:47:37;;;;;;;61.72;31.75;;;4.90;99.90;;;;;;5108440;28;20119;-65
2024/03/03 06:50:04;;;;;;;58.17;31.08;;;5.00;99.90;;;;;;5109148;28;20102;-64
2024/03/03 06:52:33;;;;;;;56.80;32.03;;;5.00;99.90;;;;;;5108977;28;20068;-64
2024/03/03 06:54:59;;;;;;;54.80;32.28;;;5.10;99.90;;;;;;5108971;28;20092;-64
2024/03/03 06:57:25;;;;;;;59.20;32.88;;;5.10;99.90;;;;;;5108430;28;20488;-64
2024/03/03 06:59:51;;;;;;;60.88;31.15;;;5.10;99.90;;;;;;5107444;28;20058;-65
2024/03/03 07:02:17;;;;;;;56.42;30.10;;;5.20;99.90;;;;;;5108574;28;20099;-64
2024/03/03 07:04:43;;;;;;;52.13;30.23;;;5.20;99.90;;;;;;5109156;28;20069;-64
2024/03/03 07:07:08;;;;;;;57.78;31.40;;;5.20;99.90;;;;;;5107130;28;20008;-64
2024/03/03 07:09:36;;;;;;;61.30;30.60;;;5.30;99.90;;;;;;5109024;28;20441;-65
2024/03/03 07:12:02;;;;;;;59.63;30.65;;;5.40;99.90;;;;;;5108975;28;20499;-65
2024/03/03 07:14:28;;;;;;;60.83;31.42;;;5.40;99.90;;;;;;5108909;28;20020;-65
2024/03/03 07:16:54;;;;;;;59.95;31.10;;;5.50;99.90;;;;;;5108463;28;20072;-64
2024/03/03 07:19:20;;;;;;;57.95;30.33;;;5.50;99.90;;;;;;5107466;28;20081;-64
2024/03/03 07:21:45;;;;;;;64.32;31.85;;;5.60;99.90;;;;;;5108963;28;20016;-65
2024/03/03 07:24:11;;;;;;;63.05;33.40;;;5.60;99.90;;;;;;5107945;28;20420;-65
2024/03/03 07:26:37;;;;;;;54.10;29.90;;;5.70;99.90;;;;;;5107919;28;20063;-65
2024/03/03 07:29:03;;;;;;;58.97;32.20;;;5.80;99.90;;;;;;5108889;28;20046;-65
2024/03/03 07:31:32;;;;;;;60.95;31.48;;;5.90;99.90;;;;;;5107389;28;20076;-65
2024/03/03 07:33:57;;;;;;;57.65;30.63;;;5.90;99.90;;;;;;5109091;28;20073;-65
2024/03/03 07:36:23;;;;;;;53.55;30.85;;;6.00;99.90;;;;;;5108403;28;20015;-65
2024/03/03 07:38:48;;;;;;;49.63;28.20;;;6.10;99.90;;;;;;5109205;28;20023;-65
2024/03/03 07:41:14;;;;;;;55.80;29.73;;;6.10;99.90;;;;;;5109311;28;20034;-65
2024/03/03 07:43:40;;;;;;;53.25;32.60;;;6.20;99.90;;;;;;5108835;28;20023;-65
2024/03/03 07:46:06;;;;;;;52.78;30.35;;;6.30;99.90;;;;;;5109956;28;20509;-65
2024/03/03 07:48:31;;;;;;;48.88;28.23;;;6.30;99.90;;;;;;5111411;28;20063;-65
2024/03/03 07:50:58;;;;;;;48.88;29.85;;;6.30;99.90;;;;;;5113118;28;20024;-65
2024/03/03 07:53:23;;;;;;;62.90;33.97;;;6.40;99.90;;;;;;5113254;28;20114;-64
2024/03/03 07:55:49;;;;;;;56.92;30.73;;;6.40;99.90;;;;;;5112496;28;20106;-65
2024/03/03 07:58:15;;;;;;;48.60;28.38;;;6.50;99.90;;;;;;5112475;28;20383;-65
2024/03/03 08:00:41;;;;;;;60.70;31.70;;;6.50;99.90;;;;;;5112632;28;20019;-65
2024/03/03 08:03:07;;;;;;;49.65;29.90;;;6.60;99.90;;;;;;5112491;28;20035;-65
2024/03/03 08:05:33;;;;;;;53.65;30.23;;;6.70;99.90;;;;;;5112520;28;20023;-65
2024/03/03 08:08:00;;;;;;;46.85;29.42;;;6.70;99.90;;;;;;5112137;28;20026;-66
2024/03/03 08:10:26;;;;;;;50.88;30.27;;;6.80;99.90;;;;;;5112277;28;20095;-66
2024/03/03 08:12:51;;;;;;;53.38;28.90;;;7.00;99.90;;;;;;5112250;28;20023;-66
2024/03/03 08:15:17;;;;;;;49.55;29.10;;;7.10;99.90;;;;;;5110754;28;20038;-66
2024/03/03 08:17:43;;;;;;;48.15;28.80;;;7.20;99.90;;;;;;5111781;28;20027;-66
2024/03/03 08:20:10;;;;;;;54.33;29.70;;;7.30;99.90;;;;;;5112330;28;20038;-66
2024/03/03 08:22:40;;;;;;;44.30;27.30;;;7.50;99.90;;;;;;5112089;28;20068;-66
2024/03/03 08:25:13;;;;;;;44.38;27.48;;;7.60;99.90;;;;;;5112010;28;20188;-66
2024/03/03 08:27:39;;;;;;;49.80;29.02;;;7.80;99.90;;;;;;5110178;28;20028;-66
2024/03/03 08:30:06;;;;;;;44.38;28.52;;;7.90;99.90;;;;;;5111015;28;20045;-66
2024/03/03 08:32:32;;;;;;;46.15;29.25;;;8.00;99.90;;;;;;5111804;28;20429;-66
2024/03/03 08:34:59;;;;;;;45.13;26.20;;;8.10;99.90;;;;;;5111657;28;20028;-66
2024/03/03 08:37:24;;;;;;;44.33;26.30;;;8.20;99.90;;;;;;5111329;28;20015;-66
2024/03/03 08:39:51;;;;;;;44.40;27.33;;;8.40;99.90;;;;;;5111583;27;20145;-66
2024/03/03 08:42:16;;;;;;;44.95;26.73;;;8.50;99.90;;;;;;5111575;28;20040;-67
2024/03/03 08:44:42;;;;;;;48.55;26.05;;;8.60;99.90;;;;;;5111812;28;20054;-66
2024/03/03 08:47:07;;;;;;;39.75;25.73;;;8.60;99.90;;;;;;5111392;28;20019;-67
2024/03/03 08:49:33;;;;;;;41.10;27.25;;;8.80;99.90;;;;;;5110480;28;20545;-66
2024/03/03 08:52:01;;;;;;;40.20;26.42;;;8.80;99.90;;;;;;5111529;27;20019;-67
2024/03/03 08:54:26;;;;;;;41.30;26.50;;;8.90;99.90;;;;;;5110371;28;20053;-67
2024/03/03 08:56:52;;;;;;;47.25;26.90;;;9.00;99.90;;;;;;5110400;28;20058;-67
2024/03/03 08:59:17;;;;;;;39.10;24.15;;;9.20;99.90;;;;;;5110236;28;20016;-67
2024/03/03 09:01:42;;;;;;;42.75;25.40;;;9.20;99.90;;;;;;5111560;28;20747;-67
2024/03/03 09:04:08;;;;;;;48.20;25.65;;;9.40;99.90;;;;;;5112029;28;20038;-67
2024/03/03 09:06:34;;;;;;;41.65;26.77;;;9.50;99.90;;;;;;5111640;28;20388;-66
2024/03/03 09:08:59;;;;;;;41.08;25.70;;;9.60;99.90;;;;;;5112035;28;20050;-67
2024/03/03 09:11:27;;;;;;;42.72;25.98;;;10.30;99.90;;;;;;5111041;28;20505;-67
2024/03/03 09:13:52;;;;;;;36.65;23.98;;;11.20;99.90;;;;;;5111273;28;20376;-68
2024/03/03 09:16:18;;;;;;;35.03;23.05;;;12.40;99.90;;;;;;5110679;28;20023;-68
2024/03/03 09:18:44;;;;;;;32.10;21.83;;;13.60;99.90;;;;;;5111035;28;20016;-68
2024/03/03 09:21:09;;;;;;;27.95;20.55;;;14.50;99.90;;;;;;5111104;28;20274;-68
2024/03/03 09:23:35;;;;;;;31.15;20.38;;;15.60;99.90;;;;;;5109589;28;20027;-68
2024/03/03 09:26:01;;;;;;;24.52;18.92;;;16.20;99.90;;;;;;5110690;28;20093;-68
2024/03/03 09:28:27;;;;;;;25.50;19.02;;;16.90;99.90;;;;;;5109497;28;20533;-68
2024/03/03 09:30:53;;;;;;;22.08;17.10;;;17.80;97.10;;;;;;5110852;28;20020;-68
2024/03/03 09:33:19;;;;;;;22.52;17.55;;;18.20;96.80;;;;;;5111039;28;20012;-68
2024/03/03 09:35:44;;;;;;;21.27;17.67;;;18.80;95.60;;;;;;5110760;28;20043;-68
2024/03/03 09:38:10;;;;;;;21.77;16.95;;;19.20;93.90;;;;;;5110458;28;20042;-68
2024/03/03 09:40:38;;;;;;;23.35;18.25;;;19.20;93.60;;;;;;5110600;28;20411;-67
2024/03/03 09:43:07;;;;;;;20.80;16.80;;;19.70;92.70;;;;;;5110584;28;20015;-68
2024/03/03 09:45:34;;;;;;;22.63;17.75;;;19.80;92.90;;;;;;5110538;28;20544;-68
2024/03/03 09:48:02;;;;;;;19.30;16.17;;;19.80;91.60;;;;;;5110466;28;20065;-68
2024/03/03 09:50:28;;;;;;;22.67;17.75;;;20.00;91.10;;;;;;5109178;28;20137;-68
2024/03/03 09:52:57;;;;;;;22.00;16.63;;;20.20;90.80;;;;;;5108980;28;20421;-68
2024/03/03 09:55:24;;;;;;;27.85;18.67;;;20.70;90.10;;;;;;5109409;28;20031;-69
2024/03/03 09:57:50;;;;;;;17.95;14.90;;;21.30;89.90;;;;;;5108068;28;20088;-68
2024/03/03 10:00:16;;;;;;;18.73;16.48;;;21.70;88.10;;;;;;5110703;28;20011;-68
2024/03/03 10:02:42;;;;;;;23.02;18.67;;;22.20;85.00;;;;;;5110768;28;20106;-68
2024/03/03 10:05:09;;;;;;;18.52;15.80;;;22.90;82.70;;;;;;5110321;28;20046;-68
2024/03/03 10:07:40;;;;;;;22.38;18.67;;;23.00;82.10;;;;;;5108498;28;20546;-68
2024/03/03 10:10:08;;;;;;;22.20;16.45;;;23.10;79.70;;;;;;5108831;28;20341;-69
2024/03/03 10:12:34;;;;;;;21.10;14.88;;;23.10;80.90;;;;;;5110065;28;20095;-68
2024/03/03 10:15:02;;;;;;;21.13;18.58;;;23.30;80.20;;;;;;5108495;28;20492;-68
2024/03/03 10:17:28;;;;;;;19.55;15.77;;;23.40;76.80;;;;;;5108288;28;20028;-68
2024/03/03 10:20:00;;;;;;;17.25;15.13;;;23.30;77.60;;;;;;5110610;28;20012;-66
2024/03/03 10:22:26;;;;;;;18.48;15.77;;;23.70;78.60;;;;;;5111401;28;20051;-51
2024/03/03 10:25:13;;;;;;;20.08;17.10;;;23.50;77.10;;;;;;5088381;28;20055;-50
2024/03/03 10:27:41;;;;;;;19.52;15.77;;;23.30;77.90;;;;;;5108044;28;20023;-50
2024/03/03 10:30:09;;;;;;;20.75;17.48;;;24.20;76.10;;;;;;5109896;28;20077;-52
2024/03/03 10:32:35;;;;;;;22.23;17.63;;;23.90;76.00;;;;;;5109989;28;20020;-52
2024/03/03 10:35:01;;;;;;;17.50;14.98;;;24.10;75.60;;;;;;5109933;28;20524;-50
2024/03/03 10:37:27;;;;;;;19.42;17.02;;;25.00;75.00;;;;;;5109636;28;20036;-51
2024/03/03 10:39:53;;;;;;;18.38;16.38;;;25.40;72.00;;;;;;5110174;28;20016;-51
2024/03/03 10:42:19;;;;;;;17.73;15.57;;;25.30;71.40;;;;;;5109960;28;20358;-51
2024/03/03 10:44:45;;;;;;;19.75;15.82;;;25.40;71.90;;;;;;5109753;28;20480;-50
2024/03/03 10:47:13;;;;;;;17.83;15.80;;;25.10;70.10;;;;;;5109120;28;20076;-51
2024/03/03 10:49:40;;;;;;;20.75;17.77;;;24.60;71.90;;;;;;5109385;28;20023;-51
2024/03/03 10:52:10;;;;;;;19.50;16.48;;;24.50;71.10;;;;;;5108953;28;20015;-49
2024/03/03 10:54:38;;;;;;;20.38;16.30;;;24.80;73.30;;;;;;5109400;28;20016;-51
2024/03/03 10:57:05;;;;;;;17.60;15.38;;;25.30;71.80;;;;;;5107649;28;20023;-52
2024/03/03 10:59:33;;;;;;;20.40;17.15;;;25.50;70.70;;;;;;5109144;28;20050;-50
2024/03/03 11:02:01;;;;;;;19.42;17.27;;;25.70;69.70;;;;;;5109205;28;20016;-51
2024/03/03 11:04:31;;;;;;;19.27;16.15;;;25.50;70.10;;;;;;5107587;28;20019;-50
2024/03/03 11:06:59;;;;;;;19.92;16.45;;;24.90;70.10;;;;;;5107737;28;20472;-54
2024/03/03 11:09:25;;;;;;;20.17;17.20;;;23.90;70.90;;;;;;5109338;28;20030;-53
2024/03/03 11:12:00;;;;;;;21.73;17.75;;;23.30;72.90;;;;;;5109441;28;20101;-53
2024/03/03 11:14:40;;;;;;;20.85;17.90;;;23.60;72.90;;;;;;5109722;28;20026;-53
2024/03/03 11:17:11;;;;;;;19.13;16.70;;;24.20;73.90;;;;;;5108675;28;20490;-53
2024/03/03 11:19:48;;;;;;;20.05;16.88;;;24.70;72.40;;;;;;5108721;28;20103;-53
2024/03/03 11:22:24;;;;;;;16.30;14.52;;;25.30;69.40;;;;;;5108829;28;20019;-53
2024/03/03 11:24:59;;;;;;;20.83;16.45;;;25.50;70.70;;;;;;5108977;28;20020;-53
2024/03/03 11:27:32;;;;;;;21.98;17.55;;;25.80;70.00;;;;;;5109051;28;20016;-53
2024/03/03 11:29:58;;;;;;;18.85;15.07;;;27.00;65.70;;;;;;5107504;28;20015;-53
2024/03/03 11:32:29;;;;;;;20.48;15.90;;;27.20;66.30;;;;;;5109031;28;20020;-54
2024/03/03 11:34:55;;;;;;;21.92;18.13;;;27.20;65.90;;;;;;5090511;28;20012;-54
2024/03/03 11:37:22;;;;;;;20.50;16.58;;;26.80;63.40;;;;;;5108544;28;20072;-53
2024/03/03 11:39:55;;;;;;;17.50;15.73;;;26.20;64.50;;;;;;5108925;28;20412;-54
2024/03/03 11:42:32;;;;;;;19.35;17.17;;;25.70;66.80;;;;;;5107815;28;20062;-54
2024/03/03 11:44:59;;;;;;;19.05;15.82;;;24.90;66.80;;;;;;5108754;28;20019;-53
2024/03/03 11:47:35;;;;;;;20.27;16.98;;;25.20;66.40;;;;;;5108353;28;20523;-53
2024/03/03 11:50:19;;;;;;;20.27;16.98;;;25.10;66.10;;;;;;5108921;28;20027;-54
2024/03/03 11:52:49;;;;;;;19.15;16.27;;;24.70;67.80;;;;;;5107485;28;20068;-54
2024/03/03 11:55:25;;;;;;;19.40;16.20;;;24.50;67.10;;;;;;5108645;28;20106;-53
2024/03/03 11:58:01;;;;;;;22.02;17.92;;;24.30;67.60;;;;;;5108406;28;20016;-54
2024/03/03 12:00:29;;;;;;;18.00;16.00;;;24.40;68.70;;;;;;5108479;28;20019;-54
2024/03/03 12:02:56;;;;;;;25.50;18.08;;;23.80;68.80;;;;;;5108517;28;20042;-53
2024/03/03 12:05:21;;;;;;;24.13;19.33;;;23.00;69.30;;;;;;5109126;28;20016;-53
2024/03/03 12:07:49;;;;;;;25.98;19.85;;;21.80;71.10;;;;;;5108520;28;20027;-53
2024/03/03 12:10:18;;;;;;;22.67;17.80;;;22.00;73.00;;;;;;5108822;28;20058;-54
2024/03/03 12:12:47;;;;;;;21.55;16.30;;;22.80;70.70;;;;;;5108554;28;20023;-53
2024/03/03 12:15:13;;;;;;;23.10;18.85;;;23.50;70.40;;;;;;5108460;28;20222;-54
2024/03/03 12:17:39;;;;;;;24.70;17.42;;;23.00;69.00;;;;;;5108174;28;20321;-53
2024/03/03 12:20:10;;;;;;;26.50;18.17;;;23.00;70.60;;;;;;5106984;28;20473;-53
2024/03/03 12:22:36;;;;;;;23.90;18.83;;;22.20;70.40;;;;;;5108411;28;20552;-51
2024/03/03 12:25:01;;;;;;;22.83;18.48;;;21.50;72.10;;;;;;5108385;28;20059;-50
2024/03/03 12:27:27;;;;;;;21.58;16.85;;;21.50;72.50;;;;;;5108073;28;20039;-51
2024/03/03 12:30:08;;;;;;;25.88;18.13;;;21.70;73.10;;;;;;5108662;28;20038;-50
2024/03/03 12:32:34;;;;;;;24.90;19.90;;;21.90;73.70;;;;;;5109420;28;20032;-50